sensor_id;sensor_type;location;lat;lon;timestamp;pressure;altitude;pressure_sealevel;temperature;humidity
74372;BME280;62885;51.374;6.170;2023-02-01T00:02:23;101810.28;;;6.31;89.80
74372;BME280;62885;51.374;6.170;2023-02-01T00:04:48;101818.28;;;6.31;89.74
74372;BME280;62885;51.374;6.170;2023-02-01T00:07:14;101810.28;;;6.31;89.60
74372;BME280;62885;51.374;6.170;2023-02-01T00:09:39;101805.97;;;6.29;89.38
74372;BME280;62885;51.374;6.170;2023-02-01T00:12:04;101801.50;;;6.29;89.39
74372;BME280;62885;51.374;6.170;2023-02-01T00:14:30;101803.44;;;6.26;89.02
74372;BME280;62885;51.374;6.170;2023-02-01T00:16:57;101792.06;;;6.22;89.13
74372;BME280;62885;51.374;6.170;2023-02-01T00:19:22;101798.41;;;6.18;88.54
74372;BME280;62885;51.374;6.170;2023-02-01T00:21:48;101787.97;;;6.13;88.04
74372;BME280;62885;51.374;6.170;2023-02-01T00:24:13;101786.31;;;6.11;87.21
74372;BME280;62885;51.374;6.170;2023-02-01T00:26:41;101782.13;;;6.05;86.37
74372;BME280;62885;51.374;6.170;2023-02-01T00:29:11;101782.16;;;6.04;85.47
74372;BME280;62885;51.374;6.170;2023-02-01T00:31:37;101780.56;;;6.00;85.20
74372;BME280;62885;51.374;6.170;2023-02-01T00:34:03;101773.56;;;5.97;85.09
74372;BME280;62885;51.374;6.170;2023-02-01T00:36:29;101761.25;;;5.95;84.71
74372;BME280;62885;51.374;6.170;2023-02-01T00:38:55;101745.63;;;5.87;85.12
74372;BME280;62885;51.374;6.170;2023-02-01T00:41:21;101733.34;;;5.83;85.18
74372;BME280;62885;51.374;6.170;2023-02-01T00:43:48;101734.31;;;5.82;84.88
74372;BME280;62885;51.374;6.170;2023-02-01T00:46:16;101732.75;;;5.76;84.94
74372;BME280;62885;51.374;6.170;2023-02-01T00:48:42;101747.81;;;5.76;84.90
74372;BME280;62885;51.374;6.170;2023-02-01T00:51:13;101745.28;;;5.73;84.43
74372;BME280;62885;51.374;6.170;2023-02-01T00:53:39;101753.28;;;5.71;84.61
74372;BME280;62885;51.374;6.170;2023-02-01T00:56:04;101758.75;;;5.68;84.12
74372;BME280;62885;51.374;6.170;2023-02-01T00:58:32;101765.97;;;5.65;84.24
74372;BME280;62885;51.374;6.170;2023-02-01T01:03:39;101778.72;;;5.55;83.98
74372;BME280;62885;51.374;6.170;2023-02-01T01:06:08;101784.03;;;5.55;83.53
74372;BME280;62885;51.374;6.170;2023-02-01T01:08:33;101786.81;;;5.52;82.87
74372;BME280;62885;51.374;6.170;2023-02-01T01:11:04;101781.38;;;5.55;81.75
74372;BME280;62885;51.374;6.170;2023-02-01T01:13:30;101780.47;;;5.56;81.32
74372;BME280;62885;51.374;6.170;2023-02-01T01:15:55;101784.00;;;5.57;80.83
74372;BME280;62885;51.374;6.170;2023-02-01T01:18:20;101780.50;;;5.55;81.40
74372;BME280;62885;51.374;6.170;2023-02-01T01:20:47;101770.03;;;5.52;80.88
74372;BME280;62885;51.374;6.170;2023-02-01T01:23:12;101777.22;;;5.48;80.46
74372;BME280;62885;51.374;6.170;2023-02-01T01:25:39;101783.41;;;5.49;80.51
74372;BME280;62885;51.374;6.170;2023-02-01T01:28:05;101784.41;;;5.46;80.71
74372;BME280;62885;51.374;6.170;2023-02-01T01:30:30;101774.69;;;5.45;80.56
74372;BME280;62885;51.374;6.170;2023-02-01T01:32:56;101775.75;;;5.41;80.37
74372;BME280;62885;51.374;6.170;2023-02-01T01:35:21;101778.44;;;5.40;80.16
74372;BME280;62885;51.374;6.170;2023-02-01T01:37:46;101768.78;;;5.37;80.29
74372;BME280;62885;51.374;6.170;2023-02-01T01:40:14;101756.38;;;5.37;80.31
74372;BME280;62885;51.374;6.170;2023-02-01T01:42:41;101759.09;;;5.36;80.14
74372;BME280;62885;51.374;6.170;2023-02-01T01:45:19;101761.88;;;5.33;80.32
74372;BME280;62885;51.374;6.170;2023-02-01T01:47:58;101765.41;;;5.33;80.36
74372;BME280;62885;51.374;6.170;2023-02-01T01:50:28;101759.28;;;5.31;80.32
74372;BME280;62885;51.374;6.170;2023-02-01T01:52:56;101760.13;;;5.32;79.68
74372;BME280;62885;51.374;6.170;2023-02-01T01:55:24;101759.41;;;5.28;80.29
74372;BME280;62885;51.374;6.170;2023-02-01T01:58:01;101764.81;;;5.25;80.13
74372;BME280;62885;51.374;6.170;2023-02-01T02:00:27;101756.97;;;5.22;80.46
74372;BME280;62885;51.374;6.170;2023-02-01T02:03:03;101753.50;;;5.20;80.62
74372;BME280;62885;51.374;6.170;2023-02-01T02:05:32;101757.28;;;5.13;80.51
74372;BME280;62885;51.374;6.170;2023-02-01T02:07:59;101753.91;;;5.10;80.81
74372;BME280;62885;51.374;6.170;2023-02-01T02:36:22;101735.91;;;4.70;85.14
74372;BME280;62885;51.374;6.170;2023-02-01T02:41:43;101729.72;;;4.69;85.63
74372;BME280;62885;51.374;6.170;2023-02-01T02:47:33;101729.97;;;4.62;86.21
74372;BME280;62885;51.374;6.170;2023-02-01T02:50:34;101730.03;;;4.60;86.59
74372;BME280;62885;51.374;6.170;2023-02-01T02:53:43;101712.91;;;4.70;86.17
74372;BME280;62885;51.374;6.170;2023-02-01T02:56:30;101719.94;;;4.71;85.95
74372;BME280;62885;51.374;6.170;2023-02-01T02:59:17;101715.25;;;4.78;85.68
74372;BME280;62885;51.374;6.170;2023-02-01T03:02:03;101713.41;;;4.80;86.42
74372;BME280;62885;51.374;6.170;2023-02-01T03:04:52;101717.75;;;4.82;86.09
74372;BME280;62885;51.374;6.170;2023-02-01T03:13:08;101710.28;;;4.93;85.82
74372;BME280;62885;51.374;6.170;2023-02-01T03:15:40;101721.63;;;4.97;85.17
74372;BME280;62885;51.374;6.170;2023-02-01T03:20:59;101700.31;;;5.00;85.54
74372;BME280;62885;51.374;6.170;2023-02-01T03:23:31;101700.06;;;5.06;85.01
74372;BME280;62885;51.374;6.170;2023-02-01T03:26:01;101706.16;;;5.08;85.13
74372;BME280;62885;51.374;6.170;2023-02-01T03:28:29;101709.81;;;5.06;85.04
74372;BME280;62885;51.374;6.170;2023-02-01T03:30:57;101700.06;;;5.06;85.05
74372;BME280;62885;51.374;6.170;2023-02-01T03:33:25;101696.47;;;5.07;85.46
74372;BME280;62885;51.374;6.170;2023-02-01T03:38:52;101696.25;;;5.13;84.73
74372;BME280;62885;51.374;6.170;2023-02-01T03:41:30;101704.06;;;5.18;84.13
74372;BME280;62885;51.374;6.170;2023-02-01T03:44:06;101709.88;;;5.27;84.32
74372;BME280;62885;51.374;6.170;2023-02-01T03:46:38;101710.06;;;5.23;84.65
74372;BME280;62885;51.374;6.170;2023-02-01T03:49:09;101701.97;;;5.26;83.92
74372;BME280;62885;51.374;6.170;2023-02-01T03:51:38;101699.44;;;5.23;84.09
74372;BME280;62885;51.374;6.170;2023-02-01T03:54:07;101696.66;;;5.26;84.21
74372;BME280;62885;51.374;6.170;2023-02-01T03:56:36;101693.94;;;5.27;83.96
74372;BME280;62885;51.374;6.170;2023-02-01T03:59:02;101683.28;;;5.29;83.79
74372;BME280;62885;51.374;6.170;2023-02-01T04:01:29;101677.16;;;5.27;84.08
74372;BME280;62885;51.374;6.170;2023-02-01T04:03:56;101682.59;;;5.24;84.37
74372;BME280;62885;51.374;6.170;2023-02-01T04:06:23;101687.81;;;5.25;83.77
74372;BME280;62885;51.374;6.170;2023-02-01T04:08:50;101680.00;;;5.22;84.11
74372;BME280;62885;51.374;6.170;2023-02-01T04:11:16;101674.72;;;5.21;84.40
74372;BME280;62885;51.374;6.170;2023-02-01T04:13:41;101679.22;;;5.19;83.84
74372;BME280;62885;51.374;6.170;2023-02-01T04:16:07;101681.97;;;5.17;84.57
74372;BME280;62885;51.374;6.170;2023-02-01T04:18:32;101683.78;;;5.15;84.65
74372;BME280;62885;51.374;6.170;2023-02-01T04:20:57;101674.00;;;5.17;84.28
74372;BME280;62885;51.374;6.170;2023-02-01T04:23:23;101682.00;;;5.16;84.46
74372;BME280;62885;51.374;6.170;2023-02-01T04:25:48;101681.13;;;5.15;84.50
74372;BME280;62885;51.374;6.170;2023-02-01T04:28:13;101685.59;;;5.15;84.51
74372;BME280;62885;51.374;6.170;2023-02-01T04:30:39;101668.91;;;5.11;84.20
74372;BME280;62885;51.374;6.170;2023-02-01T04:33:04;101676.09;;;5.08;84.30
74372;BME280;62885;51.374;6.170;2023-02-01T04:35:32;101674.31;;;5.08;84.65
74372;BME280;62885;51.374;6.170;2023-02-01T04:37:58;101674.47;;;5.05;84.54
74372;BME280;62885;51.374;6.170;2023-02-01T04:40:24;101675.47;;;5.01;84.92
74372;BME280;62885;51.374;6.170;2023-02-01T04:42:49;101687.72;;;5.05;84.54
74372;BME280;62885;51.374;6.170;2023-02-01T04:45:14;101685.25;;;5.01;84.72
74372;BME280;62885;51.374;6.170;2023-02-01T04:47:40;101687.19;;;4.95;84.81
74372;BME280;62885;51.374;6.170;2023-02-01T04:50:05;101683.56;;;4.98;84.64
74372;BME280;62885;51.374;6.170;2023-02-01T04:52:32;101689.69;;;5.00;85.18
74372;BME280;62885;51.374;6.170;2023-02-01T04:54:58;101687.13;;;4.97;85.25
74372;BME280;62885;51.374;6.170;2023-02-01T04:57:25;101691.63;;;4.95;85.30
74372;BME280;62885;51.374;6.170;2023-02-01T04:59:51;101679.31;;;4.94;85.32
74372;BME280;62885;51.374;6.170;2023-02-01T05:02:16;101676.69;;;4.92;85.06
74372;BME280;62885;51.374;6.170;2023-02-01T05:04:41;101692.63;;;4.92;85.79
74372;BME280;62885;51.374;6.170;2023-02-01T05:07:07;101689.09;;;4.92;85.78
74372;BME280;62885;51.374;6.170;2023-02-01T05:09:32;101690.94;;;4.90;85.22
74372;BME280;62885;51.374;6.170;2023-02-01T05:11:57;101703.28;;;4.91;85.33
74372;BME280;62885;51.374;6.170;2023-02-01T05:14:41;101698.97;;;4.88;85.32
74372;BME280;62885;51.374;6.170;2023-02-01T05:17:07;101689.16;;;4.90;85.44
74372;BME280;62885;51.374;6.170;2023-02-01T05:19:32;101684.84;;;4.88;85.73
74372;BME280;62885;51.374;6.170;2023-02-01T05:21:57;101692.09;;;4.83;85.66
74372;BME280;62885;51.374;6.170;2023-02-01T05:24:23;101685.75;;;4.87;86.06
74372;BME280;62885;51.374;6.170;2023-02-01T05:26:49;101684.97;;;4.83;85.73
74372;BME280;62885;51.374;6.170;2023-02-01T05:29:14;101689.50;;;4.81;85.94
74372;BME280;62885;51.374;6.170;2023-02-01T05:31:40;101683.31;;;4.81;86.11
74372;BME280;62885;51.374;6.170;2023-02-01T05:34:06;101673.69;;;4.78;86.52
74372;BME280;62885;51.374;6.170;2023-02-01T05:36:32;101681.72;;;4.77;85.85
74372;BME280;62885;51.374;6.170;2023-02-01T05:38:57;101666.81;;;4.73;85.62
74372;BME280;62885;51.374;6.170;2023-02-01T05:41:23;101667.59;;;4.76;85.79
74372;BME280;62885;51.374;6.170;2023-02-01T05:43:48;101670.16;;;4.78;85.96
74372;BME280;62885;51.374;6.170;2023-02-01T05:46:14;101671.09;;;4.77;85.73
74372;BME280;62885;51.374;6.170;2023-02-01T05:48:42;101681.81;;;4.74;86.25
74372;BME280;62885;51.374;6.170;2023-02-01T05:51:09;101674.50;;;4.80;85.53
74372;BME280;62885;51.374;6.170;2023-02-01T05:53:34;101680.63;;;4.82;85.58
74372;BME280;62885;51.374;6.170;2023-02-01T05:56:00;101677.09;;;4.82;85.82
74372;BME280;62885;51.374;6.170;2023-02-01T05:58:26;101670.09;;;4.79;86.09
74372;BME280;62885;51.374;6.170;2023-02-01T06:00:51;101683.19;;;4.84;85.59
74372;BME280;62885;51.374;6.170;2023-02-01T06:03:17;101687.53;;;4.86;85.70
74372;BME280;62885;51.374;6.170;2023-02-01T06:05:46;101684.84;;;4.88;85.66
74372;BME280;62885;51.374;6.170;2023-02-01T06:08:12;101674.16;;;4.89;86.02
74372;BME280;62885;51.374;6.170;2023-02-01T06:10:38;101676.94;;;4.86;85.63
74372;BME280;62885;51.374;6.170;2023-02-01T06:13:04;101689.09;;;4.92;85.61
74372;BME280;62885;51.374;6.170;2023-02-01T06:15:30;101685.41;;;4.96;85.17
74372;BME280;62885;51.374;6.170;2023-02-01T06:17:55;101692.50;;;4.95;85.44
74372;BME280;62885;51.374;6.170;2023-02-01T06:20:21;101687.19;;;4.95;85.83
74372;BME280;62885;51.374;6.170;2023-02-01T06:22:46;101681.81;;;4.97;85.71
74372;BME280;62885;51.374;6.170;2023-02-01T06:25:11;101696.09;;;4.94;85.40
74372;BME280;62885;51.374;6.170;2023-02-01T06:27:37;101693.34;;;4.96;86.15
74372;BME280;62885;51.374;6.170;2023-02-01T06:30:04;101683.66;;;4.95;85.33
74372;BME280;62885;51.374;6.170;2023-02-01T06:32:30;101695.09;;;4.97;86.00
74372;BME280;62885;51.374;6.170;2023-02-01T06:34:56;101684.47;;;4.97;85.88
74372;BME280;62885;51.374;6.170;2023-02-01T06:37:22;101676.66;;;4.94;86.07
74372;BME280;62885;51.374;6.170;2023-02-01T06:39:49;101675.66;;;4.96;86.23
74372;BME280;62885;51.374;6.170;2023-02-01T06:42:14;101665.16;;;4.93;86.24
74372;BME280;62885;51.374;6.170;2023-02-01T06:44:40;101684.47;;;4.97;86.71
74372;BME280;62885;51.374;6.170;2023-02-01T06:47:06;101679.34;;;4.92;86.33
74372;BME280;62885;51.374;6.170;2023-02-01T06:49:31;101688.13;;;4.94;86.34
74372;BME280;62885;51.374;6.170;2023-02-01T06:51:56;101697.78;;;4.95;86.49
74372;BME280;62885;51.374;6.170;2023-02-01T06:54:22;101702.09;;;5.00;86.14
74372;BME280;62885;51.374;6.170;2023-02-01T06:56:47;101701.72;;;5.09;86.04
74372;BME280;62885;51.374;6.170;2023-02-01T06:59:13;101699.75;;;5.14;86.09
74372;BME280;62885;51.374;6.170;2023-02-01T07:01:38;101703.34;;;5.13;86.46
74372;BME280;62885;51.374;6.170;2023-02-01T07:04:04;101713.81;;;5.17;86.09
74372;BME280;62885;51.374;6.170;2023-02-01T07:06:29;101703.06;;;5.20;85.74
74372;BME280;62885;51.374;6.170;2023-02-01T07:08:55;101705.53;;;5.25;85.64
74372;BME280;62885;51.374;6.170;2023-02-01T07:11:22;101714.28;;;5.28;85.85
74372;BME280;62885;51.374;6.170;2023-02-01T07:13:48;101707.91;;;5.32;85.36
74372;BME280;62885;51.374;6.170;2023-02-01T07:16:17;101706.94;;;5.35;85.04
74372;BME280;62885;51.374;6.170;2023-02-01T07:18:44;101706.81;;;5.38;85.22
74372;BME280;62885;51.374;6.170;2023-02-01T07:21:09;101704.97;;;5.40;85.29
74372;BME280;62885;51.374;6.170;2023-02-01T07:23:35;101699.66;;;5.40;85.06
74372;BME280;62885;51.374;6.170;2023-02-01T07:26:03;101702.25;;;5.42;84.90
74372;BME280;62885;51.374;6.170;2023-02-01T07:28:30;101702.38;;;5.38;85.32
74372;BME280;62885;51.374;6.170;2023-02-01T07:31:03;101701.38;;;5.41;84.74
74372;BME280;62885;51.374;6.170;2023-02-01T07:33:29;101705.75;;;5.42;84.90
74372;BME280;62885;51.374;6.170;2023-02-01T07:35:55;101704.06;;;5.41;85.29
74372;BME280;62885;51.374;6.170;2023-02-01T07:38:20;101717.38;;;5.40;84.81
74372;BME280;62885;51.374;6.170;2023-02-01T07:40:46;101715.63;;;5.38;84.93
74372;BME280;62885;51.374;6.170;2023-02-01T07:43:12;101712.16;;;5.36;85.00
74372;BME280;62885;51.374;6.170;2023-02-01T07:45:38;101723.66;;;5.37;85.03
74372;BME280;62885;51.374;6.170;2023-02-01T07:48:03;101720.31;;;5.32;85.32
74372;BME280;62885;51.374;6.170;2023-02-01T07:50:29;101716.75;;;5.33;84.86
74372;BME280;62885;51.374;6.170;2023-02-01T07:52:55;101718.66;;;5.29;85.14
74372;BME280;62885;51.374;6.170;2023-02-01T07:55:23;101724.13;;;5.25;85.72
74372;BME280;62885;51.374;6.170;2023-02-01T07:57:49;101723.97;;;5.29;85.17
74372;BME280;62885;51.374;6.170;2023-02-01T08:00:15;101719.63;;;5.27;85.31
74372;BME280;62885;51.374;6.170;2023-02-01T08:03:00;101717.16;;;5.22;85.36
74372;BME280;62885;51.374;6.170;2023-02-01T08:05:26;101722.50;;;5.21;85.70
74372;BME280;62885;51.374;6.170;2023-02-01T08:07:51;101723.44;;;5.20;85.22
74372;BME280;62885;51.374;6.170;2023-02-01T08:10:17;101735.78;;;5.21;85.34
74372;BME280;62885;51.374;6.170;2023-02-01T08:12:43;101732.31;;;5.19;85.64
74372;BME280;62885;51.374;6.170;2023-02-01T08:15:13;101727.00;;;5.19;85.28
74372;BME280;62885;51.374;6.170;2023-02-01T08:17:39;101728.81;;;5.18;85.63
74372;BME280;62885;51.374;6.170;2023-02-01T08:20:05;101734.19;;;5.17;85.70
74372;BME280;62885;51.374;6.170;2023-02-01T08:22:33;101732.31;;;5.19;85.86
74372;BME280;62885;51.374;6.170;2023-02-01T08:24:58;101741.22;;;5.18;85.54
74372;BME280;62885;51.374;6.170;2023-02-01T08:27:26;101741.97;;;5.21;85.09
74372;BME280;62885;51.374;6.170;2023-02-01T08:29:52;101744.75;;;5.18;85.63
74372;BME280;62885;51.374;6.170;2023-02-01T08:32:18;101760.78;;;5.15;85.74
74372;BME280;62885;51.374;6.170;2023-02-01T08:34:43;101762.50;;;5.16;85.67
74372;BME280;62885;51.374;6.170;2023-02-01T08:37:09;101764.38;;;5.13;85.95
74372;BME280;62885;51.374;6.170;2023-02-01T08:39:35;101761.72;;;5.13;85.41
74372;BME280;62885;51.374;6.170;2023-02-01T08:42:01;101758.06;;;5.17;85.70
74372;BME280;62885;51.374;6.170;2023-02-01T08:44:45;101768.72;;;5.15;85.40
74372;BME280;62885;51.374;6.170;2023-02-01T08:47:10;101767.78;;;5.18;85.49
74372;BME280;62885;51.374;6.170;2023-02-01T08:49:36;101763.19;;;5.21;85.19
74372;BME280;62885;51.374;6.170;2023-02-01T08:52:01;101761.19;;;5.28;85.03
74372;BME280;62885;51.374;6.170;2023-02-01T08:54:27;101760.19;;;5.30;85.46
74372;BME280;62885;51.374;6.170;2023-02-01T08:56:52;101755.88;;;5.28;85.55
74372;BME280;62885;51.374;6.170;2023-02-01T08:59:19;101752.34;;;5.27;85.00
74372;BME280;62885;51.374;6.170;2023-02-01T09:01:44;101755.75;;;5.31;84.84
74372;BME280;62885;51.374;6.170;2023-02-01T09:04:10;101755.81;;;5.29;85.28
74372;BME280;62885;51.374;6.170;2023-02-01T09:06:35;101748.56;;;5.34;84.98
74372;BME280;62885;51.374;6.170;2023-02-01T09:09:00;101751.22;;;5.34;85.40
74372;BME280;62885;51.374;6.170;2023-02-01T09:11:26;101735.19;;;5.36;84.60
74372;BME280;62885;51.374;6.170;2023-02-01T09:13:51;101747.28;;;5.45;84.65
74372;BME280;62885;51.374;6.170;2023-02-01T09:16:17;101757.66;;;5.51;84.39
74372;BME280;62885;51.374;6.170;2023-02-01T09:18:42;101745.00;;;5.57;84.60
74372;BME280;62885;51.374;6.170;2023-02-01T09:21:08;101745.97;;;5.55;83.91
74372;BME280;62885;51.374;6.170;2023-02-01T09:23:34;101746.50;;;5.64;84.10
74372;BME280;62885;51.374;6.170;2023-02-01T09:26:03;101749.16;;;5.64;84.45
74372;BME280;62885;51.374;6.170;2023-02-01T09:28:29;101743.78;;;5.66;83.96
74372;BME280;62885;51.374;6.170;2023-02-01T09:30:59;101744.63;;;5.66;83.98
74372;BME280;62885;51.374;6.170;2023-02-01T09:33:27;101750.88;;;5.65;84.44
74372;BME280;62885;51.374;6.170;2023-02-01T09:36:02;101744.47;;;5.71;83.82
74372;BME280;62885;51.374;6.170;2023-02-01T09:38:28;101739.91;;;5.74;83.45
74372;BME280;62885;51.374;6.170;2023-02-01T09:40:54;101750.41;;;5.77;83.49
74372;BME280;62885;51.374;6.170;2023-02-01T09:43:45;101745.75;;;5.83;83.83
74372;BME280;62885;51.374;6.170;2023-02-01T09:46:30;101733.28;;;5.85;83.27
74372;BME280;62885;51.374;6.170;2023-02-01T09:49:01;101736.59;;;5.91;82.92
74372;BME280;62885;51.374;6.170;2023-02-01T09:51:34;101725.69;;;5.99;82.66
74372;BME280;62885;51.374;6.170;2023-02-01T09:56:43;101718.22;;;6.07;82.52
74372;BME280;62885;51.374;6.170;2023-02-01T10:01:45;101728.69;;;6.11;82.18
74372;BME280;62885;51.374;6.170;2023-02-01T10:04:13;101727.84;;;6.11;81.38
74372;BME280;62885;51.374;6.170;2023-02-01T10:07:01;101723.19;;;6.16;82.04
74372;BME280;62885;51.374;6.170;2023-02-01T10:09:50;101738.22;;;6.17;81.73
74372;BME280;62885;51.374;6.170;2023-02-01T10:18:14;101721.31;;;6.18;81.75
74372;BME280;62885;51.374;6.170;2023-02-01T10:21:01;101721.88;;;6.26;81.43
74372;BME280;62885;51.374;6.170;2023-02-01T10:26:12;101731.69;;;6.24;81.80
74372;BME280;62885;51.374;6.170;2023-02-01T10:28:46;101730.75;;;6.25;80.95
74372;BME280;62885;51.374;6.170;2023-02-01T10:31:13;101728.78;;;6.30;80.80
74372;BME280;62885;51.374;6.170;2023-02-01T10:33:45;101714.69;;;6.28;80.89
74372;BME280;62885;51.374;6.170;2023-02-01T10:36:23;101732.19;;;6.34;81.09
74372;BME280;62885;51.374;6.170;2023-02-01T10:38:50;101733.13;;;6.33;80.95
74372;BME280;62885;51.374;6.170;2023-02-01T10:41:19;101736.28;;;6.41;80.83
74372;BME280;62885;51.374;6.170;2023-02-01T10:43:49;101743.34;;;6.42;80.88
74372;BME280;62885;51.374;6.170;2023-02-01T10:46:16;101745.09;;;6.43;80.64
74372;BME280;62885;51.374;6.170;2023-02-01T10:48:42;101733.31;;;6.48;80.58
74372;BME280;62885;51.374;6.170;2023-02-01T10:51:26;101728.56;;;6.56;80.03
74372;BME280;62885;51.374;6.170;2023-02-01T10:53:58;101728.34;;;6.61;79.85
74372;BME280;62885;51.374;6.170;2023-02-01T10:56:28;101735.19;;;6.67;79.74
74372;BME280;62885;51.374;6.170;2023-02-01T10:59:02;101717.22;;;6.72;79.69
74372;BME280;62885;51.374;6.170;2023-02-01T11:03:57;101713.38;;;6.79;79.18
74372;BME280;62885;51.374;6.170;2023-02-01T11:11:32;101710.56;;;6.82;78.85
74372;BME280;62885;51.374;6.170;2023-02-01T11:14:02;101698.94;;;6.84;79.05
74372;BME280;62885;51.374;6.170;2023-02-01T11:16:38;101683.00;;;6.83;78.76
74372;BME280;62885;51.374;6.170;2023-02-01T11:19:04;101686.34;;;6.88;78.60
74372;BME280;62885;51.374;6.170;2023-02-01T11:21:31;101687.06;;;6.91;79.10
74372;BME280;62885;51.374;6.170;2023-02-01T11:24:01;101677.19;;;6.93;78.46
74372;BME280;62885;51.374;6.170;2023-02-01T11:26:28;101673.41;;;6.99;78.52
74372;BME280;62885;51.374;6.170;2023-02-01T11:29:00;101676.16;;;6.97;78.27
74372;BME280;62885;51.374;6.170;2023-02-01T11:31:27;101657.31;;;7.02;77.96
74372;BME280;62885;51.374;6.170;2023-02-01T11:34:06;101655.28;;;7.07;77.74
74372;BME280;62885;51.374;6.170;2023-02-01T11:36:34;101658.47;;;7.15;76.86
74372;BME280;62885;51.374;6.170;2023-02-01T11:46:53;101648.47;;;7.39;74.47
74372;BME280;62885;51.374;6.170;2023-02-01T11:49:26;101648.53;;;7.37;74.85
74372;BME280;62885;51.374;6.170;2023-02-01T11:55:04;101642.75;;;7.47;72.92
74372;BME280;62885;51.374;6.170;2023-02-01T11:58:06;101649.09;;;7.44;73.01
74372;BME280;62885;51.374;6.170;2023-02-01T12:22:51;101619.97;;;7.58;71.47
74372;BME280;62885;51.374;6.170;2023-02-01T12:30:46;101619.75;;;7.63;70.96
74372;BME280;62885;51.374;6.170;2023-02-01T12:38:46;101610.59;;;7.68;71.32
74372;BME280;62885;51.374;6.170;2023-02-01T12:43:57;101610.66;;;7.67;71.16
74372;BME280;62885;51.374;6.170;2023-02-01T12:46:49;101613.25;;;7.68;70.94
74372;BME280;62885;51.374;6.170;2023-02-01T12:49:23;101605.97;;;7.72;71.32
74372;BME280;62885;51.374;6.170;2023-02-01T12:51:58;101595.25;;;7.73;70.51
74372;BME280;62885;51.374;6.170;2023-02-01T12:56:57;101611.31;;;7.72;71.65
74372;BME280;62885;51.374;6.170;2023-02-01T12:59:35;101613.16;;;7.70;71.13
74372;BME280;62885;51.374;6.170;2023-02-01T13:02:15;101597.75;;;7.76;70.64
74372;BME280;62885;51.374;6.170;2023-02-01T13:04:55;101592.63;;;7.72;71.44
74372;BME280;62885;51.374;6.170;2023-02-01T13:07:34;101594.38;;;7.73;71.06
74372;BME280;62885;51.374;6.170;2023-02-01T13:10:13;101595.13;;;7.75;71.66
74372;BME280;62885;51.374;6.170;2023-02-01T13:12:47;101599.41;;;7.79;70.88
74372;BME280;62885;51.374;6.170;2023-02-01T13:15:19;101598.53;;;7.78;70.95
74372;BME280;62885;51.374;6.170;2023-02-01T13:17:46;101593.19;;;7.78;71.99
74372;BME280;62885;51.374;6.170;2023-02-01T13:20:37;101618.81;;;7.81;71.78
74372;BME280;62885;51.374;6.170;2023-02-01T13:23:24;101591.09;;;7.85;71.18
74372;BME280;62885;51.374;6.170;2023-02-01T13:25:51;101587.50;;;7.86;71.35
74372;BME280;62885;51.374;6.170;2023-02-01T13:33:39;101594.38;;;8.07;70.96
74372;BME280;62885;51.374;6.170;2023-02-01T13:36:20;101585.19;;;8.13;71.21
74372;BME280;62885;51.374;6.170;2023-02-01T13:39:02;101599.41;;;8.13;70.93
74372;BME280;62885;51.374;6.170;2023-02-01T13:41:51;101598.47;;;8.14;70.56
74372;BME280;62885;51.374;6.170;2023-02-01T13:44:25;101599.41;;;8.13;70.57
74372;BME280;62885;51.374;6.170;2023-02-01T13:47:01;101590.06;;;8.05;71.50
74372;BME280;62885;51.374;6.170;2023-02-01T13:49:31;101595.50;;;8.03;71.25
74372;BME280;62885;51.374;6.170;2023-02-01T13:51:59;101592.72;;;8.05;71.72
74372;BME280;62885;51.374;6.170;2023-02-01T13:54:33;101591.97;;;8.03;71.55
74372;BME280;62885;51.374;6.170;2023-02-01T13:57:03;101597.19;;;8.04;72.04
74372;BME280;62885;51.374;6.170;2023-02-01T14:00:04;101599.84;;;8.04;71.79
74372;BME280;62885;51.374;6.170;2023-02-01T14:05:06;101603.25;;;8.08;71.83
74372;BME280;62885;51.374;6.170;2023-02-01T14:07:36;101607.78;;;8.06;71.49
74372;BME280;62885;51.374;6.170;2023-02-01T14:13:05;101610.16;;;8.12;71.55
74372;BME280;62885;51.374;6.170;2023-02-01T14:15:37;101613.50;;;8.15;72.04
74372;BME280;62885;51.374;6.170;2023-02-01T14:23:42;101612.66;;;8.15;72.42
74372;BME280;62885;51.374;6.170;2023-02-01T14:34:14;101627.00;;;8.12;71.64
74372;BME280;62885;51.374;6.170;2023-02-01T14:36:48;101626.06;;;8.13;72.75
74372;BME280;62885;51.374;6.170;2023-02-01T14:39:31;101628.81;;;8.12;72.23
74372;BME280;62885;51.374;6.170;2023-02-01T14:44:51;101633.34;;;8.10;73.24
74372;BME280;62885;51.374;6.170;2023-02-01T15:00:52;101649.53;;;8.07;73.16
74372;BME280;62885;51.374;6.170;2023-02-01T15:05:57;101654.84;;;8.07;72.82
74372;BME280;62885;51.374;6.170;2023-02-01T15:08:34;101652.19;;;8.07;73.29
74372;BME280;62885;51.374;6.170;2023-02-01T15:11:06;101643.31;;;8.06;73.38
74372;BME280;62885;51.374;6.170;2023-02-01T15:13:34;101643.50;;;8.03;73.50
74372;BME280;62885;51.374;6.170;2023-02-01T15:16:12;101647.16;;;8.01;72.97
74372;BME280;62885;51.374;6.170;2023-02-01T15:18:38;101649.03;;;7.99;73.67
74372;BME280;62885;51.374;6.170;2023-02-01T15:21:05;101660.66;;;7.98;73.39
74372;BME280;62885;51.374;6.170;2023-02-01T15:23:31;101651.88;;;7.96;74.26
74372;BME280;62885;51.374;6.170;2023-02-01T15:25:57;101660.66;;;7.98;73.94
74372;BME280;62885;51.374;6.170;2023-02-01T15:28:25;101643.94;;;7.94;74.31
74372;BME280;62885;51.374;6.170;2023-02-01T15:31:04;101646.78;;;7.91;74.74
74372;BME280;62885;51.374;6.170;2023-02-01T15:33:30;101656.47;;;7.92;74.74
74372;BME280;62885;51.374;6.170;2023-02-01T15:38:34;101659.31;;;7.89;74.97
74372;BME280;62885;51.374;6.170;2023-02-01T15:43:37;101646.84;;;7.90;74.77
74372;BME280;62885;51.374;6.170;2023-02-01T15:46:09;101656.88;;;7.84;74.70
74372;BME280;62885;51.374;6.170;2023-02-01T15:48:39;101651.69;;;7.81;75.67
74372;BME280;62885;51.374;6.170;2023-02-01T15:51:12;101658.69;;;7.84;75.57
74372;BME280;62885;51.374;6.170;2023-02-01T15:53:38;101654.28;;;7.83;75.00
74372;BME280;62885;51.374;6.170;2023-02-01T15:56:08;101662.34;;;7.81;75.12
74372;BME280;62885;51.374;6.170;2023-02-01T15:58:34;101665.09;;;7.80;75.96